Bremerton, WA (98312)

07:11 PM PDT del 27 Agosto 2016 (GMT -0700)
Lk Wm. Symington | | Change Station

Alt. 500 ft 47.60 °N, 122.83 °W | Updated 25 seconds ago

Partly Cloudy
Parzialmente nuvoloso
67.3 °F
Sembra 67.3 °F
N
0.5
Vento Variabile Vento da NNO
Gusts 1.2 mph

Oggi
Massima -- | Minima -- °F
--% Possibilità di precip.
Ieri
Massima -- | Minima -- °F
Precip. -- in
Pressione 29.95 in
Visibilità 10.0 miglia
Nuvole Alcuni 3800 ft
Punto di rugiada 54 °F
Umidità 62%
Piovosità 0.00 in
Spessore del manto nevoso Non disponibile.
6:23 AM 8:00 PM
Luna calante, 19% visible
METAR KPWT 280155Z AUTO 18008KT 10SM FEW038 19/12 A2995 RMK AO1
Pressione 29.95 in
Visibilità 10.0 miglia
Nuvole Alcuni 3800 ft
Punto di rugiada 54 °F
Umidità 62%
Piovosità 0.00 in
Spessore del manto nevoso Non disponibile.
6:23 AM 8:00 PM
Luna calante, 19% visible
METAR KPWT 280155Z AUTO 18008KT 10SM FEW038 19/12 A2995 RMK AO1

10-Day Weather Forecast

Almanac

Astronomia

Aug. 27, 2016 Alba Tramonto
Ora attuale
Crepuscolo civile
Crepuscolo nautico
Crepuscolo astronomico
Luna
Estensione della luce visibile
Lunghezza del giorno
Tomorrow will be .
, % of the Moon is Illuminated

Gli estremi di oggi

State Highs State Lows

Community

WunderPhotos

Upload Photos

1,935,493 foto caricate!

WunderBlog® & News

Nearby

Qualità dell'aria

  Qualità dell'aria Indice AQ Inquinante
Not available.

Profondità neve

Stazione Profondità Altitudine

Attività sismica

Città  Distanza Mag. Data & Ora
Minimo Magnitudo Mostrato è 2.5.

Temperature delle acque costiere

Località Temperatura

Stations

Stazioni meteo nelle vicinanze

Ubicazione della stazione Temp. Raffreddamento del vento Punto di rugiada Umidità Vento Precip. Alt. Aggiornato Tipo
                   

Watches & Warnings

There are currently no watches in effect.